sensor_id;sensor_type;location;lat;lon;timestamp;temperature;humidity
41142;SHT31;63666;52.284;20.890;2023-03-09T00:01:33;20.41;35.58
41142;SHT31;63666;52.284;20.890;2023-03-09T00:04:08;20.40;35.58
41142;SHT31;63666;52.284;20.890;2023-03-09T00:06:46;20.39;35.52
41142;SHT31;63666;52.284;20.890;2023-03-09T00:09:20;20.37;35.56
41142;SHT31;63666;52.284;20.890;2023-03-09T00:11:56;20.34;35.56
41142;SHT31;63666;52.284;20.890;2023-03-09T00:14:33;20.32;35.60
41142;SHT31;63666;52.284;20.890;2023-03-09T00:17:06;20.30;35.56
41142;SHT31;63666;52.284;20.890;2023-03-09T00:19:40;20.28;35.55
41142;SHT31;63666;52.284;20.890;2023-03-09T00:22:14;20.29;35.58
41142;SHT31;63666;52.284;20.890;2023-03-09T00:24:51;20.27;35.58
41142;SHT31;63666;52.284;20.890;2023-03-09T00:27:26;20.22;35.61
41142;SHT31;63666;52.284;20.890;2023-03-09T00:30:01;20.24;35.64
41142;SHT31;63666;52.284;20.890;2023-03-09T00:32:37;20.22;35.56
41142;SHT31;63666;52.284;20.890;2023-03-09T00:35:11;20.21;35.62
41142;SHT31;63666;52.284;20.890;2023-03-09T00:37:45;20.22;35.62
41142;SHT31;63666;52.284;20.890;2023-03-09T00:40:18;20.22;35.61
41142;SHT31;63666;52.284;20.890;2023-03-09T00:42:52;20.20;35.63
41142;SHT31;63666;52.284;20.890;2023-03-09T00:45:26;20.19;35.67
41142;SHT31;63666;52.284;20.890;2023-03-09T00:48:00;20.17;35.63
41142;SHT31;63666;52.284;20.890;2023-03-09T00:50:36;20.14;35.66
41142;SHT31;63666;52.284;20.890;2023-03-09T00:53:11;20.10;35.67
41142;SHT31;63666;52.284;20.890;2023-03-09T00:55:45;20.14;35.61
41142;SHT31;63666;52.284;20.890;2023-03-09T00:58:19;20.11;35.70
41142;SHT31;63666;52.284;20.890;2023-03-09T01:00:55;20.08;35.70
41142;SHT31;63666;52.284;20.890;2023-03-09T01:03:31;20.09;35.67
41142;SHT31;63666;52.284;20.890;2023-03-09T01:06:07;20.08;35.68
41142;SHT31;63666;52.284;20.890;2023-03-09T01:08:41;20.08;35.65
41142;SHT31;63666;52.284;20.890;2023-03-09T01:11:17;20.05;35.69
41142;SHT31;63666;52.284;20.890;2023-03-09T01:13:54;20.02;35.70
41142;SHT31;63666;52.284;20.890;2023-03-09T01:16:29;20.02;35.68
41142;SHT31;63666;52.284;20.890;2023-03-09T01:19:04;20.03;35.63
41142;SHT31;63666;52.284;20.890;2023-03-09T01:21:38;20.01;35.68
41142;SHT31;63666;52.284;20.890;2023-03-09T01:24:11;20.01;35.70
41142;SHT31;63666;52.284;20.890;2023-03-09T01:26:48;19.97;35.71
41142;SHT31;63666;52.284;20.890;2023-03-09T01:29:22;19.96;35.71
41142;SHT31;63666;52.284;20.890;2023-03-09T01:31:56;19.95;35.71
41142;SHT31;63666;52.284;20.890;2023-03-09T01:34:32;19.92;35.78
41142;SHT31;63666;52.284;20.890;2023-03-09T01:37:06;19.92;35.70
41142;SHT31;63666;52.284;20.890;2023-03-09T01:39:41;19.90;35.75
41142;SHT31;63666;52.284;20.890;2023-03-09T01:42:15;19.92;35.72
41142;SHT31;63666;52.284;20.890;2023-03-09T01:48:03;19.88;35.74
41142;SHT31;63666;52.284;20.890;2023-03-09T01:50:38;19.86;35.76
41142;SHT31;63666;52.284;20.890;2023-03-09T01:53:14;19.87;35.76
41142;SHT31;63666;52.284;20.890;2023-03-09T01:55:49;19.83;35.81
41142;SHT31;63666;52.284;20.890;2023-03-09T01:58:26;19.85;35.79
41142;SHT31;63666;52.284;20.890;2023-03-09T02:01:02;19.81;35.80
41142;SHT31;63666;52.284;20.890;2023-03-09T02:03:36;19.82;35.80
41142;SHT31;63666;52.284;20.890;2023-03-09T02:06:16;19.84;35.75
41142;SHT31;63666;52.284;20.890;2023-03-09T02:08:54;19.87;35.69
41142;SHT31;63666;52.284;20.890;2023-03-09T02:11:40;19.87;35.70
41142;SHT31;63666;52.284;20.890;2023-03-09T02:14:14;19.87;35.65
41142;SHT31;63666;52.284;20.890;2023-03-09T02:16:49;19.85;35.70
41142;SHT31;63666;52.284;20.890;2023-03-09T02:19:33;19.88;35.63
41142;SHT31;63666;52.284;20.890;2023-03-09T02:22:20;19.87;35.63
41142;SHT31;63666;52.284;20.890;2023-03-09T02:24:59;19.83;35.68
41142;SHT31;63666;52.284;20.890;2023-03-09T02:27:43;19.86;35.63
41142;SHT31;63666;52.284;20.890;2023-03-09T02:30:17;19.86;35.66
41142;SHT31;63666;52.284;20.890;2023-03-09T02:32:51;19.83;35.67
41142;SHT31;63666;52.284;20.890;2023-03-09T02:35:38;19.79;35.70
41142;SHT31;63666;52.284;20.890;2023-03-09T02:38:12;19.79;35.71
41142;SHT31;63666;52.284;20.890;2023-03-09T02:40:46;19.78;35.72
41142;SHT31;63666;52.284;20.890;2023-03-09T02:43:22;19.78;35.68
41142;SHT31;63666;52.284;20.890;2023-03-09T02:46:00;19.80;35.62
41142;SHT31;63666;52.284;20.890;2023-03-09T02:48:34;19.80;35.63
41142;SHT31;63666;52.284;20.890;2023-03-09T02:51:07;19.78;35.66
41142;SHT31;63666;52.284;20.890;2023-03-09T02:53:41;19.76;35.71
41142;SHT31;63666;52.284;20.890;2023-03-09T02:56:15;19.77;35.68
41142;SHT31;63666;52.284;20.890;2023-03-09T02:58:48;19.75;35.69
41142;SHT31;63666;52.284;20.890;2023-03-09T03:01:22;19.75;35.70
41142;SHT31;63666;52.284;20.890;2023-03-09T03:03:58;19.76;35.69
41142;SHT31;63666;52.284;20.890;2023-03-09T03:06:31;19.74;35.70
41142;SHT31;63666;52.284;20.890;2023-03-09T03:09:05;19.71;35.70
41142;SHT31;63666;52.284;20.890;2023-03-09T03:11:39;19.72;35.66
41142;SHT31;63666;52.284;20.890;2023-03-09T03:14:12;19.72;35.68
41142;SHT31;63666;52.284;20.890;2023-03-09T03:16:46;19.71;35.62
41142;SHT31;63666;52.284;20.890;2023-03-09T03:19:19;19.74;35.61
41142;SHT31;63666;52.284;20.890;2023-03-09T03:21:55;19.70;35.61
41142;SHT31;63666;52.284;20.890;2023-03-09T03:24:29;19.67;35.65
41142;SHT31;63666;52.284;20.890;2023-03-09T03:27:06;19.65;35.65
41142;SHT31;63666;52.284;20.890;2023-03-09T03:29:40;19.67;35.62
41142;SHT31;63666;52.284;20.890;2023-03-09T03:32:14;19.64;35.61
41142;SHT31;63666;52.284;20.890;2023-03-09T03:34:48;19.62;35.67
41142;SHT31;63666;52.284;20.890;2023-03-09T03:37:23;19.63;35.61
41142;SHT31;63666;52.284;20.890;2023-03-09T03:39:56;19.64;35.61
41142;SHT31;63666;52.284;20.890;2023-03-09T03:42:37;19.61;35.65
41142;SHT31;63666;52.284;20.890;2023-03-09T03:45:11;19.61;35.60
41142;SHT31;63666;52.284;20.890;2023-03-09T03:47:44;19.61;35.60
41142;SHT31;63666;52.284;20.890;2023-03-09T03:50:18;19.61;35.59
41142;SHT31;63666;52.284;20.890;2023-03-09T03:52:51;19.59;35.61
41142;SHT31;63666;52.284;20.890;2023-03-09T03:55:27;19.60;35.59
41142;SHT31;63666;52.284;20.890;2023-03-09T03:58:01;19.57;35.63
41142;SHT31;63666;52.284;20.890;2023-03-09T04:00:38;19.58;35.60
41142;SHT31;63666;52.284;20.890;2023-03-09T04:03:11;19.56;35.67
41142;SHT31;63666;52.284;20.890;2023-03-09T04:05:46;19.57;35.67
41142;SHT31;63666;52.284;20.890;2023-03-09T04:08:19;19.58;35.62
41142;SHT31;63666;52.284;20.890;2023-03-09T04:10:54;19.57;35.65
41142;SHT31;63666;52.284;20.890;2023-03-09T04:13:28;19.56;35.61
41142;SHT31;63666;52.284;20.890;2023-03-09T04:16:03;19.56;35.62
41142;SHT31;63666;52.284;20.890;2023-03-09T04:18:42;19.54;35.66
41142;SHT31;63666;52.284;20.890;2023-03-09T04:21:17;19.52;35.68
41142;SHT31;63666;52.284;20.890;2023-03-09T04:23:52;19.51;35.70
41142;SHT31;63666;52.284;20.890;2023-03-09T04:26:25;19.51;35.80
41142;SHT31;63666;52.284;20.890;2023-03-09T04:28:59;19.48;35.94
41142;SHT31;63666;52.284;20.890;2023-03-09T04:31:35;19.48;36.00
41142;SHT31;63666;52.284;20.890;2023-03-09T04:34:09;19.48;36.36
41142;SHT31;63666;52.284;20.890;2023-03-09T04:36:44;19.50;36.46
41142;SHT31;63666;52.284;20.890;2023-03-09T04:39:18;19.50;36.64
41142;SHT31;63666;52.284;20.890;2023-03-09T04:41:53;19.46;36.92
41142;SHT31;63666;52.284;20.890;2023-03-09T04:44:27;19.47;37.02
41142;SHT31;63666;52.284;20.890;2023-03-09T04:47:02;19.49;36.89
41142;SHT31;63666;52.284;20.890;2023-03-09T04:49:36;19.45;36.87
41142;SHT31;63666;52.284;20.890;2023-03-09T04:52:10;19.45;36.87
41142;SHT31;63666;52.284;20.890;2023-03-09T04:54:43;19.42;36.85
41142;SHT31;63666;52.284;20.890;2023-03-09T04:57:20;19.43;36.80
41142;SHT31;63666;52.284;20.890;2023-03-09T04:59:53;19.46;36.75
41142;SHT31;63666;52.284;20.890;2023-03-09T05:02:28;19.50;36.70
41142;SHT31;63666;52.284;20.890;2023-03-09T05:05:01;19.54;36.62
41142;SHT31;63666;52.284;20.890;2023-03-09T05:07:36;19.59;36.48
41142;SHT31;63666;52.284;20.890;2023-03-09T05:10:11;19.67;36.33
41142;SHT31;63666;52.284;20.890;2023-03-09T05:12:45;19.73;36.20
41142;SHT31;63666;52.284;20.890;2023-03-09T05:15:18;19.77;36.12
41142;SHT31;63666;52.284;20.890;2023-03-09T05:17:53;19.78;36.10
41142;SHT31;63666;52.284;20.890;2023-03-09T05:20:26;19.83;36.04
41142;SHT31;63666;52.284;20.890;2023-03-09T05:23:00;19.86;36.00
41142;SHT31;63666;52.284;20.890;2023-03-09T05:25:35;19.90;35.87
41142;SHT31;63666;52.284;20.890;2023-03-09T05:28:10;19.93;35.90
41142;SHT31;63666;52.284;20.890;2023-03-09T05:30:46;19.97;35.89
41142;SHT31;63666;52.284;20.890;2023-03-09T05:33:20;19.98;35.89
41142;SHT31;63666;52.284;20.890;2023-03-09T05:35:56;20.00;35.80
41142;SHT31;63666;52.284;20.890;2023-03-09T05:38:29;20.03;35.78
41142;SHT31;63666;52.284;20.890;2023-03-09T05:41:06;19.99;35.75
41142;SHT31;63666;52.284;20.890;2023-03-09T05:43:41;19.99;35.83
41142;SHT31;63666;52.284;20.890;2023-03-09T05:46:15;20.02;35.91
41142;SHT31;63666;52.284;20.890;2023-03-09T05:48:49;20.05;35.99
41142;SHT31;63666;52.284;20.890;2023-03-09T05:51:28;20.09;36.42
41142;SHT31;63666;52.284;20.890;2023-03-09T05:54:02;20.17;37.48
41142;SHT31;63666;52.284;20.890;2023-03-09T05:56:36;20.20;37.84
41142;SHT31;63666;52.284;20.890;2023-03-09T05:59:10;20.19;37.51
41142;SHT31;63666;52.284;20.890;2023-03-09T06:01:47;20.22;37.54
41142;SHT31;63666;52.284;20.890;2023-03-09T06:04:21;20.25;37.54
41142;SHT31;63666;52.284;20.890;2023-03-09T06:06:55;20.26;37.54
41142;SHT31;63666;52.284;20.890;2023-03-09T06:09:30;20.31;37.60
41142;SHT31;63666;52.284;20.890;2023-03-09T06:12:05;20.35;37.63
41142;SHT31;63666;52.284;20.890;2023-03-09T06:14:40;20.38;37.54
41142;SHT31;63666;52.284;20.890;2023-03-09T06:17:16;20.39;37.43
41142;SHT31;63666;52.284;20.890;2023-03-09T06:19:54;20.40;37.38
41142;SHT31;63666;52.284;20.890;2023-03-09T06:22:28;20.42;37.23
41142;SHT31;63666;52.284;20.890;2023-03-09T06:25:03;20.46;37.11
41142;SHT31;63666;52.284;20.890;2023-03-09T06:27:43;20.51;36.98
41142;SHT31;63666;52.284;20.890;2023-03-09T06:30:19;20.53;36.88
41142;SHT31;63666;52.284;20.890;2023-03-09T06:32:56;20.57;36.75
41142;SHT31;63666;52.284;20.890;2023-03-09T06:35:30;20.58;36.67
41142;SHT31;63666;52.284;20.890;2023-03-09T06:38:07;20.61;36.53
41142;SHT31;63666;52.284;20.890;2023-03-09T06:40:47;20.61;36.40
41142;SHT31;63666;52.284;20.890;2023-03-09T06:43:30;20.62;36.32
41142;SHT31;63666;52.284;20.890;2023-03-09T06:46:08;20.65;36.20
41142;SHT31;63666;52.284;20.890;2023-03-09T06:48:44;20.68;36.11
41142;SHT31;63666;52.284;20.890;2023-03-09T06:51:19;20.72;36.01
41142;SHT31;63666;52.284;20.890;2023-03-09T06:53:54;20.73;35.95
41142;SHT31;63666;52.284;20.890;2023-03-09T06:56:30;20.75;35.87
41142;SHT31;63666;52.284;20.890;2023-03-09T06:59:06;20.81;35.78
41142;SHT31;63666;52.284;20.890;2023-03-09T07:01:44;20.80;35.77
41142;SHT31;63666;52.284;20.890;2023-03-09T07:04:24;20.83;35.69
41142;SHT31;63666;52.284;20.890;2023-03-09T07:06:59;20.85;35.62
41142;SHT31;63666;52.284;20.890;2023-03-09T07:09:33;20.87;35.54
41142;SHT31;63666;52.284;20.890;2023-03-09T07:12:09;20.89;35.54
41142;SHT31;63666;52.284;20.890;2023-03-09T07:14:46;20.93;35.52
41142;SHT31;63666;52.284;20.890;2023-03-09T07:17:21;20.94;35.46
41142;SHT31;63666;52.284;20.890;2023-03-09T07:19:57;20.95;35.42
41142;SHT31;63666;52.284;20.890;2023-03-09T07:22:32;20.94;35.38
41142;SHT31;63666;52.284;20.890;2023-03-09T07:25:08;20.95;35.31
41142;SHT31;63666;52.284;20.890;2023-03-09T07:27:43;20.96;35.29
41142;SHT31;63666;52.284;20.890;2023-03-09T07:30:21;20.98;35.20
41142;SHT31;63666;52.284;20.890;2023-03-09T07:32:59;21.00;35.17
41142;SHT31;63666;52.284;20.890;2023-03-09T07:35:38;21.01;35.09
41142;SHT31;63666;52.284;20.890;2023-03-09T07:38:14;21.01;35.05
41142;SHT31;63666;52.284;20.890;2023-03-09T07:40:52;21.02;35.02
41142;SHT31;63666;52.284;20.890;2023-03-09T07:43:30;21.05;35.05
41142;SHT31;63666;52.284;20.890;2023-03-09T07:46:14;21.06;34.99
41142;SHT31;63666;52.284;20.890;2023-03-09T07:48:49;21.07;34.98
41142;SHT31;63666;52.284;20.890;2023-03-09T07:51:24;21.08;35.00
41142;SHT31;63666;52.284;20.890;2023-03-09T07:53:58;21.10;34.94
41142;SHT31;63666;52.284;20.890;2023-03-09T07:56:32;21.13;34.89
41142;SHT31;63666;52.284;20.890;2023-03-09T07:59:09;21.13;34.89
41142;SHT31;63666;52.284;20.890;2023-03-09T08:01:47;21.15;34.84
41142;SHT31;63666;52.284;20.890;2023-03-09T08:04:20;21.16;34.78
41142;SHT31;63666;52.284;20.890;2023-03-09T08:06:54;21.17;34.99
41142;SHT31;63666;52.284;20.890;2023-03-09T08:09:28;21.20;35.69
41142;SHT31;63666;52.284;20.890;2023-03-09T08:12:05;21.21;35.45
41142;SHT31;63666;52.284;20.890;2023-03-09T08:14:40;21.25;35.31
41142;SHT31;63666;52.284;20.890;2023-03-09T08:17:16;21.25;35.21
41142;SHT31;63666;52.284;20.890;2023-03-09T08:19:49;21.26;35.11
41142;SHT31;63666;52.284;20.890;2023-03-09T08:22:23;21.28;35.09
41142;SHT31;63666;52.284;20.890;2023-03-09T08:24:57;21.29;34.99
41142;SHT31;63666;52.284;20.890;2023-03-09T08:27:32;21.30;34.96
41142;SHT31;63666;52.284;20.890;2023-03-09T08:30:11;21.29;34.90
41142;SHT31;63666;52.284;20.890;2023-03-09T08:32:51;21.29;34.83
41142;SHT31;63666;52.284;20.890;2023-03-09T08:35:29;21.29;34.78
41142;SHT31;63666;52.284;20.890;2023-03-09T08:38:04;21.29;34.72
41142;SHT31;63666;52.284;20.890;2023-03-09T08:40:38;21.31;34.69
41142;SHT31;63666;52.284;20.890;2023-03-09T08:43:14;21.33;34.62
41142;SHT31;63666;52.284;20.890;2023-03-09T08:45:49;21.34;34.61
41142;SHT31;63666;52.284;20.890;2023-03-09T08:48:28;21.36;34.61
41142;SHT31;63666;52.284;20.890;2023-03-09T08:51:03;21.35;34.59
41142;SHT31;63666;52.284;20.890;2023-03-09T08:53:39;21.37;34.49
41142;SHT31;63666;52.284;20.890;2023-03-09T08:56:16;21.38;34.43
41142;SHT31;63666;52.284;20.890;2023-03-09T08:58:50;21.39;34.41
41142;SHT31;63666;52.284;20.890;2023-03-09T09:01:25;21.40;34.44
41142;SHT31;63666;52.284;20.890;2023-03-09T09:04:02;21.43;34.39
41142;SHT31;63666;52.284;20.890;2023-03-09T09:06:37;21.46;34.33
41142;SHT31;63666;52.284;20.890;2023-03-09T09:09:13;21.46;34.32
41142;SHT31;63666;52.284;20.890;2023-03-09T09:11:50;21.48;34.30
41142;SHT31;63666;52.284;20.890;2023-03-09T09:14:27;21.52;34.24
41142;SHT31;63666;52.284;20.890;2023-03-09T09:17:00;21.52;34.21
41142;SHT31;63666;52.284;20.890;2023-03-09T09:19:38;21.50;34.20
41142;SHT31;63666;52.284;20.890;2023-03-09T09:22:14;21.51;34.21
41142;SHT31;63666;52.284;20.890;2023-03-09T09:24:53;21.52;34.18
41142;SHT31;63666;52.284;20.890;2023-03-09T09:27:27;21.54;34.21
41142;SHT31;63666;52.284;20.890;2023-03-09T09:30:01;21.53;34.21
41142;SHT31;63666;52.284;20.890;2023-03-09T09:32:39;21.50;34.24
41142;SHT31;63666;52.284;20.890;2023-03-09T09:35:14;21.53;34.95
41142;SHT31;63666;52.284;20.890;2023-03-09T09:37:51;21.61;34.98
41142;SHT31;63666;52.284;20.890;2023-03-09T09:40:29;21.65;35.06
41142;SHT31;63666;52.284;20.890;2023-03-09T09:43:15;21.70;34.92
41142;SHT31;63666;52.284;20.890;2023-03-09T09:45:50;21.74;34.91
41142;SHT31;63666;52.284;20.890;2023-03-09T09:48:32;21.95;35.67
41142;SHT31;63666;52.284;20.890;2023-03-09T09:51:14;22.01;35.20
41142;SHT31;63666;52.284;20.890;2023-03-09T09:54:21;22.12;34.83
41142;SHT31;63666;52.284;20.890;2023-03-09T09:57:08;22.22;34.11
41142;SHT31;63666;52.284;20.890;2023-03-09T09:59:51;22.28;34.10
41142;SHT31;63666;52.284;20.890;2023-03-09T10:05:39;22.39;33.84
41142;SHT31;63666;52.284;20.890;2023-03-09T10:08:29;22.38;33.58
41142;SHT31;63666;52.284;20.890;2023-03-09T10:11:11;22.32;33.36
41142;SHT31;63666;52.284;20.890;2023-03-09T10:14:00;22.26;33.21
41142;SHT31;63666;52.284;20.890;2023-03-09T10:16:45;22.09;33.47
41142;SHT31;63666;52.284;20.890;2023-03-09T10:19:32;22.02;33.52
41142;SHT31;63666;52.284;20.890;2023-03-09T10:22:16;22.27;33.75
41142;SHT31;63666;52.284;20.890;2023-03-09T10:24:58;22.43;33.24
41142;SHT31;63666;52.284;20.890;2023-03-09T10:27:44;22.44;32.76
41142;SHT31;63666;52.284;20.890;2023-03-09T10:30:30;22.45;32.71
41142;SHT31;63666;52.284;20.890;2023-03-09T10:33:14;22.43;32.72
41142;SHT31;63666;52.284;20.890;2023-03-09T10:35:59;22.45;32.68
41142;SHT31;63666;52.284;20.890;2023-03-09T10:38:44;22.46;32.63
41142;SHT31;63666;52.284;20.890;2023-03-09T10:41:29;22.46;32.57
41142;SHT31;63666;52.284;20.890;2023-03-09T10:44:12;22.49;32.66
41142;SHT31;63666;52.284;20.890;2023-03-09T10:46:57;22.48;32.54
41142;SHT31;63666;52.284;20.890;2023-03-09T10:49:33;22.55;32.63
41142;SHT31;63666;52.284;20.890;2023-03-09T10:52:16;22.58;32.36
41142;SHT31;63666;52.284;20.890;2023-03-09T10:55:00;22.60;32.33
41142;SHT31;63666;52.284;20.890;2023-03-09T10:57:56;22.62;32.26
41142;SHT31;63666;52.284;20.890;2023-03-09T11:00:46;22.57;32.27
41142;SHT31;63666;52.284;20.890;2023-03-09T11:03:36;22.61;32.31
41142;SHT31;63666;52.284;20.890;2023-03-09T11:09:10;22.63;32.19
41142;SHT31;63666;52.284;20.890;2023-03-09T11:11:50;22.62;32.21
41142;SHT31;63666;52.284;20.890;2023-03-09T11:14:43;22.61;32.13
41142;SHT31;63666;52.284;20.890;2023-03-09T11:17:32;22.58;32.19
41142;SHT31;63666;52.284;20.890;2023-03-09T11:20:20;22.43;32.36
41142;SHT31;63666;52.284;20.890;2023-03-09T11:23:12;22.21;32.69
41142;SHT31;63666;52.284;20.890;2023-03-09T11:26:17;22.07;32.89
41142;SHT31;63666;52.284;20.890;2023-03-09T11:28:59;22.02;33.00
41142;SHT31;63666;52.284;20.890;2023-03-09T11:31:52;21.99;33.02
41142;SHT31;63666;52.284;20.890;2023-03-09T11:34:33;22.01;32.93
41142;SHT31;63666;52.284;20.890;2023-03-09T11:37:13;22.00;33.00
41142;SHT31;63666;52.284;20.890;2023-03-09T11:39:59;21.99;32.97
41142;SHT31;63666;52.284;20.890;2023-03-09T11:42:43;21.96;32.98
41142;SHT31;63666;52.284;20.890;2023-03-09T11:45:28;21.93;33.03
41142;SHT31;63666;52.284;20.890;2023-03-09T11:48:08;21.93;32.93
41142;SHT31;63666;52.284;20.890;2023-03-09T11:50:55;21.92;32.95
41142;SHT31;63666;52.284;20.890;2023-03-09T11:53:35;21.91;33.02
41142;SHT31;63666;52.284;20.890;2023-03-09T11:56:21;21.89;32.99
41142;SHT31;63666;52.284;20.890;2023-03-09T11:59:00;21.89;33.00
41142;SHT31;63666;52.284;20.890;2023-03-09T12:01:45;21.86;33.05
41142;SHT31;63666;52.284;20.890;2023-03-09T12:04:24;21.84;32.97
41142;SHT31;63666;52.284;20.890;2023-03-09T12:06:58;21.86;32.99
41142;SHT31;63666;52.284;20.890;2023-03-09T12:09:39;21.88;32.89
41142;SHT31;63666;52.284;20.890;2023-03-09T12:12:26;21.88;32.90
41142;SHT31;63666;52.284;20.890;2023-03-09T12:15:10;21.89;32.96
41142;SHT31;63666;52.284;20.890;2023-03-09T12:17:48;21.89;32.95
41142;SHT31;63666;52.284;20.890;2023-03-09T12:20:31;21.97;33.48
41142;SHT31;63666;52.284;20.890;2023-03-09T12:26:20;22.26;32.63
41142;SHT31;63666;52.284;20.890;2023-03-09T12:29:14;22.26;33.02
41142;SHT31;63666;52.284;20.890;2023-03-09T12:35:10;22.42;32.30
41142;SHT31;63666;52.284;20.890;2023-03-09T12:38:20;22.48;32.16
41142;SHT31;63666;52.284;20.890;2023-03-09T12:41:01;22.52;32.48
41142;SHT31;63666;52.284;20.890;2023-03-09T12:43:52;22.56;32.27
41142;SHT31;63666;52.284;20.890;2023-03-09T12:49:35;22.65;32.03
41142;SHT31;63666;52.284;20.890;2023-03-09T12:55:20;22.35;32.47
41142;SHT31;63666;52.284;20.890;2023-03-09T13:01:05;22.13;33.22
41142;SHT31;63666;52.284;20.890;2023-03-09T13:04:10;22.11;33.16
41142;SHT31;63666;52.284;20.890;2023-03-09T13:06:56;22.08;32.82
41142;SHT31;63666;52.284;20.890;2023-03-09T13:09:35;22.04;32.87
41142;SHT31;63666;52.284;20.890;2023-03-09T13:12:17;22.04;32.77
41142;SHT31;63666;52.284;20.890;2023-03-09T13:15:05;22.00;32.64
41142;SHT31;63666;52.284;20.890;2023-03-09T13:24:12;21.91;32.96
41142;SHT31;63666;52.284;20.890;2023-03-09T13:26:56;21.92;32.99
41142;SHT31;63666;52.284;20.890;2023-03-09T13:29:37;21.93;32.84
41142;SHT31;63666;52.284;20.890;2023-03-09T13:32:23;21.93;32.79
41142;SHT31;63666;52.284;20.890;2023-03-09T13:35:11;21.96;32.66
41142;SHT31;63666;52.284;20.890;2023-03-09T13:37:52;21.91;33.03
41142;SHT31;63666;52.284;20.890;2023-03-09T13:40:49;21.87;33.20
41142;SHT31;63666;52.284;20.890;2023-03-09T13:43:29;21.88;33.27
41142;SHT31;63666;52.284;20.890;2023-03-09T13:46:10;21.93;32.88
41142;SHT31;63666;52.284;20.890;2023-03-09T13:48:59;21.94;32.81
41142;SHT31;63666;52.284;20.890;2023-03-09T13:51:48;21.85;32.99
41142;SHT31;63666;52.284;20.890;2023-03-09T13:54:29;21.86;32.89
41142;SHT31;63666;52.284;20.890;2023-03-09T13:57:12;21.81;33.39
41142;SHT31;63666;52.284;20.890;2023-03-09T13:59:52;22.03;34.10
41142;SHT31;63666;52.284;20.890;2023-03-09T14:02:31;22.13;33.72
41142;SHT31;63666;52.284;20.890;2023-03-09T14:05:16;22.17;33.71
41142;SHT31;63666;52.284;20.890;2023-03-09T14:08:16;22.26;33.48
41142;SHT31;63666;52.284;20.890;2023-03-09T14:10:52;22.32;33.60
41142;SHT31;63666;52.284;20.890;2023-03-09T14:13:36;22.39;33.51
41142;SHT31;63666;52.284;20.890;2023-03-09T14:16:19;22.26;34.52
41142;SHT31;63666;52.284;20.890;2023-03-09T14:18:58;21.99;34.06
41142;SHT31;63666;52.284;20.890;2023-03-09T14:21:35;22.00;33.66
41142;SHT31;63666;52.284;20.890;2023-03-09T14:24:12;22.00;33.61
41142;SHT31;63666;52.284;20.890;2023-03-09T14:27:11;21.88;33.76
41142;SHT31;63666;52.284;20.890;2023-03-09T14:29:55;21.58;34.15
41142;SHT31;63666;52.284;20.890;2023-03-09T14:32:58;21.52;34.29
41142;SHT31;63666;52.284;20.890;2023-03-09T14:35:34;21.50;34.51
41142;SHT31;63666;52.284;20.890;2023-03-09T14:38:19;21.49;34.53
41142;SHT31;63666;52.284;20.890;2023-03-09T14:41:02;21.48;34.54
41142;SHT31;63666;52.284;20.890;2023-03-09T14:43:53;21.60;34.35
41142;SHT31;63666;52.284;20.890;2023-03-09T14:46:33;21.82;34.09
41142;SHT31;63666;52.284;20.890;2023-03-09T14:49:10;21.86;34.05
41142;SHT31;63666;52.284;20.890;2023-03-09T14:51:46;21.78;34.01
41142;SHT31;63666;52.284;20.890;2023-03-09T14:54:25;21.52;34.33
41142;SHT31;63666;52.284;20.890;2023-03-09T14:57:03;21.36;34.52
41142;SHT31;63666;52.284;20.890;2023-03-09T14:59:42;21.35;34.57
41142;SHT31;63666;52.284;20.890;2023-03-09T15:02:20;21.34;34.63
41142;SHT31;63666;52.284;20.890;2023-03-09T15:04:55;21.32;34.80
41142;SHT31;63666;52.284;20.890;2023-03-09T15:07:30;21.35;34.89
41142;SHT31;63666;52.284;20.890;2023-03-09T15:10:08;21.40;35.07
41142;SHT31;63666;52.284;20.890;2023-03-09T15:12:47;21.52;34.85
41142;SHT31;63666;52.284;20.890;2023-03-09T15:15:25;21.79;34.55
41142;SHT31;63666;52.284;20.890;2023-03-09T15:18:01;21.84;34.46
41142;SHT31;63666;52.284;20.890;2023-03-09T15:20:36;21.72;34.54
41142;SHT31;63666;52.284;20.890;2023-03-09T15:23:14;21.41;35.05
41142;SHT31;63666;52.284;20.890;2023-03-09T15:25:53;21.30;35.19
41142;SHT31;63666;52.284;20.890;2023-03-09T15:28:27;21.32;35.12
41142;SHT31;63666;52.284;20.890;2023-03-09T15:31:01;21.29;35.16
41142;SHT31;63666;52.284;20.890;2023-03-09T15:33:47;21.28;35.25
41142;SHT31;63666;52.284;20.890;2023-03-09T15:36:22;21.27;35.29
41142;SHT31;63666;52.284;20.890;2023-03-09T15:38:59;21.30;35.23
41142;SHT31;63666;52.284;20.890;2023-03-09T15:41:36;21.33;35.13
41142;SHT31;63666;52.284;20.890;2023-03-09T15:44:14;21.38;34.98
41142;SHT31;63666;52.284;20.890;2023-03-09T15:46:50;21.63;34.58
41142;SHT31;63666;52.284;20.890;2023-03-09T15:49:35;21.63;34.50
41142;SHT31;63666;52.284;20.890;2023-03-09T15:52:18;21.34;34.98
41142;SHT31;63666;52.284;20.890;2023-03-09T15:54:55;21.27;35.15
41142;SHT31;63666;52.284;20.890;2023-03-09T15:57:36;21.27;35.14
41142;SHT31;63666;52.284;20.890;2023-03-09T16:00:13;21.25;35.16
41142;SHT31;63666;52.284;20.890;2023-03-09T16:02:51;21.21;35.23
41142;SHT31;63666;52.284;20.890;2023-03-09T16:05:29;21.20;35.32
41142;SHT31;63666;52.284;20.890;2023-03-09T16:08:07;21.22;35.32
41142;SHT31;63666;52.284;20.890;2023-03-09T16:10:48;21.30;35.19
41142;SHT31;63666;52.284;20.890;2023-03-09T16:13:26;21.63;34.65
41142;SHT31;63666;52.284;20.890;2023-03-09T16:16:06;21.76;34.40
41142;SHT31;63666;52.284;20.890;2023-03-09T16:18:44;21.76;36.97
41142;SHT31;63666;52.284;20.890;2023-03-09T16:21:18;21.96;38.99
41142;SHT31;63666;52.284;20.890;2023-03-09T16:23:53;21.84;38.90
41142;SHT31;63666;52.284;20.890;2023-03-09T16:26:29;21.93;37.02
41142;SHT31;63666;52.284;20.890;2023-03-09T16:29:09;21.97;37.13
41142;SHT31;63666;52.284;20.890;2023-03-09T16:31:46;22.08;36.71
41142;SHT31;63666;52.284;20.890;2023-03-09T16:34:28;21.96;36.85
41142;SHT31;63666;52.284;20.890;2023-03-09T16:37:08;21.84;37.43
41142;SHT31;63666;52.284;20.890;2023-03-09T16:39:43;22.01;36.93
41142;SHT31;63666;52.284;20.890;2023-03-09T16:42:24;22.18;36.12
41142;SHT31;63666;52.284;20.890;2023-03-09T16:45:03;22.29;35.42
41142;SHT31;63666;52.284;20.890;2023-03-09T16:47:41;22.31;35.82
41142;SHT31;63666;52.284;20.890;2023-03-09T16:50:24;22.31;36.17
41142;SHT31;63666;52.284;20.890;2023-03-09T16:53:03;22.36;35.78
41142;SHT31;63666;52.284;20.890;2023-03-09T16:55:46;22.35;35.74